Terminal Aerodrome Forecast
Issued by NWS North Platte, NE

Home | Current Version | Previous Version | Text Only | Print | Product List | Glossary On
Versions: 1 2 3 4 5 6 7 8 9 10 11 12 13 14 15 16 17 18
658
FTUS43 KLBF 271311 AAA
TAFLBF
TAF AMD
KLBF 271311Z 2713/2812 VRB06KT P6SM SCT015 BKN150
     FM271600 36009KT P6SM BKN030
     FM271800 36012KT P6SM BKN040
     FM280200 31005KT P6SM SCT250=

USA.gov is the U.S. government's official web portal to all federal, state and local government web resources and services.